Eulalia, Pennsylvania
Current Conditions -  °F | °C
As of 6:56 PM on Friday 28 Nov 2014 (Local Time) from KELZ Reporting Station
Overcast Overcast  
Wind Chill: 11°   Ceiling: 10000
Heat Index: 20°   Visibility: 10mi
Dew Point:   Wind: 7mph
Humidity: 62%   Direction: 260°W
Pressure: 30.14"   Gusts: NA
Location:  41.7605°N, 77.9728°W
Report Text: KELZ 282356Z AUTO 26006KT 10SM OVC100 M07/M13 A3014 RMK AO2 SLP241 T10671128 11050 21072 51003
Loading
Personal Weather Stations






























Interactive Weather Map New forecast layout! Learn more

10-Day Weather Forecast

Advertisements
Track Severe Weather on mobile